sensor_id;sensor_type;location;lat;lon;timestamp;temperature;humidity
1083;DHT22;530;51.448;7.238;2023-02-28T00:01:21;3.10;99.90
1083;DHT22;530;51.448;7.238;2023-02-28T00:03:47;3.10;99.90
1083;DHT22;530;51.448;7.238;2023-02-28T00:06:13;3.30;99.90
1083;DHT22;530;51.448;7.238;2023-02-28T00:08:39;3.10;99.90
1083;DHT22;530;51.448;7.238;2023-02-28T00:11:07;3.20;99.90
1083;DHT22;530;51.448;7.238;2023-02-28T00:13:38;3.20;99.90
1083;DHT22;530;51.448;7.238;2023-02-28T00:16:06;3.10;99.90
1083;DHT22;530;51.448;7.238;2023-02-28T00:18:32;3.20;99.90
1083;DHT22;530;51.448;7.238;2023-02-28T00:20:58;3.10;99.90
1083;DHT22;530;51.448;7.238;2023-02-28T00:23:26;3.00;99.90
1083;DHT22;530;51.448;7.238;2023-02-28T00:25:52;3.10;99.90
1083;DHT22;530;51.448;7.238;2023-02-28T00:28:18;3.10;99.90
1083;DHT22;530;51.448;7.238;2023-02-28T00:30:44;3.20;99.90
1083;DHT22;530;51.448;7.238;2023-02-28T00:33:10;3.10;99.90
1083;DHT22;530;51.448;7.238;2023-02-28T00:35:36;3.00;99.90
1083;DHT22;530;51.448;7.238;2023-02-28T00:38:02;3.20;99.90
1083;DHT22;530;51.448;7.238;2023-02-28T00:40:28;3.10;99.90
1083;DHT22;530;51.448;7.238;2023-02-28T00:42:54;3.00;99.90
1083;DHT22;530;51.448;7.238;2023-02-28T00:45:19;2.90;99.90
1083;DHT22;530;51.448;7.238;2023-02-28T00:47:45;3.20;99.90
1083;DHT22;530;51.448;7.238;2023-02-28T00:50:12;2.90;99.90
1083;DHT22;530;51.448;7.238;2023-02-28T00:52:37;2.90;99.90
1083;DHT22;530;51.448;7.238;2023-02-28T00:55:04;2.80;99.90
1083;DHT22;530;51.448;7.238;2023-02-28T00:57:29;2.90;99.90
1083;DHT22;530;51.448;7.238;2023-02-28T00:59:55;2.90;99.90
1083;DHT22;530;51.448;7.238;2023-02-28T01:02:22;3.00;99.90
1083;DHT22;530;51.448;7.238;2023-02-28T01:04:48;3.00;99.90
1083;DHT22;530;51.448;7.238;2023-02-28T01:07:14;2.90;99.90
1083;DHT22;530;51.448;7.238;2023-02-28T01:09:40;2.80;99.90
1083;DHT22;530;51.448;7.238;2023-02-28T01:12:07;2.90;99.90
1083;DHT22;530;51.448;7.238;2023-02-28T01:14:32;2.70;99.90
1083;DHT22;530;51.448;7.238;2023-02-28T01:16:58;2.60;99.90
1083;DHT22;530;51.448;7.238;2023-02-28T01:19:24;2.60;99.90
1083;DHT22;530;51.448;7.238;2023-02-28T01:21:49;2.60;99.90
1083;DHT22;530;51.448;7.238;2023-02-28T01:24:15;2.60;99.90
1083;DHT22;530;51.448;7.238;2023-02-28T01:26:41;2.80;99.90
1083;DHT22;530;51.448;7.238;2023-02-28T01:29:06;2.60;99.90
1083;DHT22;530;51.448;7.238;2023-02-28T01:31:32;2.60;99.90
1083;DHT22;530;51.448;7.238;2023-02-28T01:33:58;2.60;99.90
1083;DHT22;530;51.448;7.238;2023-02-28T01:36:25;2.60;99.90
1083;DHT22;530;51.448;7.238;2023-02-28T01:38:51;2.60;99.90
1083;DHT22;530;51.448;7.238;2023-02-28T01:41:20;2.60;99.90
1083;DHT22;530;51.448;7.238;2023-02-28T01:46:13;2.40;99.90
1083;DHT22;530;51.448;7.238;2023-02-28T01:48:45;2.40;99.90
1083;DHT22;530;51.448;7.238;2023-02-28T01:51:16;2.60;99.90
1083;DHT22;530;51.448;7.238;2023-02-28T01:53:51;2.50;99.90
1083;DHT22;530;51.448;7.238;2023-02-28T01:56:22;2.30;99.90
1083;DHT22;530;51.448;7.238;2023-02-28T01:58:49;2.40;99.90
1083;DHT22;530;51.448;7.238;2023-02-28T02:01:16;2.50;99.90
1083;DHT22;530;51.448;7.238;2023-02-28T02:04:01;2.50;99.90
1083;DHT22;530;51.448;7.238;2023-02-28T02:06:34;2.30;99.90
1083;DHT22;530;51.448;7.238;2023-02-28T02:09:01;2.40;99.90
1083;DHT22;530;51.448;7.238;2023-02-28T02:11:28;2.40;99.90
1083;DHT22;530;51.448;7.238;2023-02-28T02:17:25;2.30;99.90
1083;DHT22;530;51.448;7.238;2023-02-28T02:25:28;2.40;99.90
1083;DHT22;530;51.448;7.238;2023-02-28T02:36:27;2.30;99.90
1083;DHT22;530;51.448;7.238;2023-02-28T02:39:05;2.10;99.90
1083;DHT22;530;51.448;7.238;2023-02-28T02:41:51;2.20;99.90
1083;DHT22;530;51.448;7.238;2023-02-28T02:44:24;2.20;99.90
1083;DHT22;530;51.448;7.238;2023-02-28T02:46:55;2.00;99.90
1083;DHT22;530;51.448;7.238;2023-02-28T02:49:30;2.00;99.90
1083;DHT22;530;51.448;7.238;2023-02-28T02:52:00;2.20;99.90
1083;DHT22;530;51.448;7.238;2023-02-28T02:54:28;2.10;99.90
1083;DHT22;530;51.448;7.238;2023-02-28T02:56:59;2.20;99.90
1083;DHT22;530;51.448;7.238;2023-02-28T02:59:26;1.90;99.90
1083;DHT22;530;51.448;7.238;2023-02-28T03:01:57;1.90;99.90
1083;DHT22;530;51.448;7.238;2023-02-28T03:04:27;1.80;99.90
1083;DHT22;530;51.448;7.238;2023-02-28T03:06:56;1.80;99.90
1083;DHT22;530;51.448;7.238;2023-02-28T03:09:22;1.90;99.90
1083;DHT22;530;51.448;7.238;2023-02-28T03:11:49;1.90;99.90
1083;DHT22;530;51.448;7.238;2023-02-28T03:23:19;1.90;99.90
1083;DHT22;530;51.448;7.238;2023-02-28T03:26:06;1.90;99.90
1083;DHT22;530;51.448;7.238;2023-02-28T03:28:41;1.80;99.90
1083;DHT22;530;51.448;7.238;2023-02-28T03:31:18;1.90;99.90
1083;DHT22;530;51.448;7.238;2023-02-28T03:33:53;1.70;99.90
1083;DHT22;530;51.448;7.238;2023-02-28T03:36:22;1.90;99.90
1083;DHT22;530;51.448;7.238;2023-02-28T03:41:23;1.70;99.90
1083;DHT22;530;51.448;7.238;2023-02-28T03:44:03;2.00;99.90
1083;DHT22;530;51.448;7.238;2023-02-28T03:46:34;1.90;99.90
1083;DHT22;530;51.448;7.238;2023-02-28T03:51:29;1.70;99.90
1083;DHT22;530;51.448;7.238;2023-02-28T03:54:05;1.80;99.90
1083;DHT22;530;51.448;7.238;2023-02-28T03:56:37;1.70;99.90
1083;DHT22;530;51.448;7.238;2023-02-28T03:59:14;1.70;99.90
1083;DHT22;530;51.448;7.238;2023-02-28T04:01:48;1.70;99.90
1083;DHT22;530;51.448;7.238;2023-02-28T04:04:15;1.90;99.90
1083;DHT22;530;51.448;7.238;2023-02-28T04:06:42;1.80;99.90
1083;DHT22;530;51.448;7.238;2023-02-28T04:09:10;1.70;99.90
1083;DHT22;530;51.448;7.238;2023-02-28T04:11:40;1.70;99.90
1083;DHT22;530;51.448;7.238;2023-02-28T04:14:07;1.60;99.90
1083;DHT22;530;51.448;7.238;2023-02-28T04:16:35;1.50;99.90
1083;DHT22;530;51.448;7.238;2023-02-28T04:19:02;1.70;99.90
1083;DHT22;530;51.448;7.238;2023-02-28T04:21:34;1.70;99.90
1083;DHT22;530;51.448;7.238;2023-02-28T04:24:01;1.60;99.90
1083;DHT22;530;51.448;7.238;2023-02-28T04:26:35;1.80;99.90
1083;DHT22;530;51.448;7.238;2023-02-28T04:29:03;1.80;99.90
1083;DHT22;530;51.448;7.238;2023-02-28T04:31:28;1.50;99.90
1083;DHT22;530;51.448;7.238;2023-02-28T04:33:54;1.60;99.90
1083;DHT22;530;51.448;7.238;2023-02-28T04:36:20;1.60;99.90
1083;DHT22;530;51.448;7.238;2023-02-28T04:38:48;1.60;99.90
1083;DHT22;530;51.448;7.238;2023-02-28T04:41:14;1.60;99.90
1083;DHT22;530;51.448;7.238;2023-02-28T04:43:39;1.70;99.90
1083;DHT22;530;51.448;7.238;2023-02-28T04:46:05;1.60;99.90
1083;DHT22;530;51.448;7.238;2023-02-28T04:48:33;1.60;99.90
1083;DHT22;530;51.448;7.238;2023-02-28T04:51:04;1.50;99.90
1083;DHT22;530;51.448;7.238;2023-02-28T04:53:31;1.70;99.90
1083;DHT22;530;51.448;7.238;2023-02-28T04:55:57;1.60;99.90
1083;DHT22;530;51.448;7.238;2023-02-28T04:58:24;1.60;99.90
1083;DHT22;530;51.448;7.238;2023-02-28T05:00:51;1.50;99.90
1083;DHT22;530;51.448;7.238;2023-02-28T05:03:16;1.40;99.90
1083;DHT22;530;51.448;7.238;2023-02-28T05:05:42;1.40;99.90
1083;DHT22;530;51.448;7.238;2023-02-28T05:08:08;1.40;99.90
1083;DHT22;530;51.448;7.238;2023-02-28T05:10:35;1.50;99.90
1083;DHT22;530;51.448;7.238;2023-02-28T05:13:01;1.40;99.90
1083;DHT22;530;51.448;7.238;2023-02-28T05:15:27;1.50;99.90
1083;DHT22;530;51.448;7.238;2023-02-28T05:17:53;1.50;99.90
1083;DHT22;530;51.448;7.238;2023-02-28T05:20:18;1.40;99.90
1083;DHT22;530;51.448;7.238;2023-02-28T05:22:44;1.50;99.90
1083;DHT22;530;51.448;7.238;2023-02-28T05:25:13;1.20;99.90
1083;DHT22;530;51.448;7.238;2023-02-28T05:27:40;1.40;99.90
1083;DHT22;530;51.448;7.238;2023-02-28T05:30:06;1.10;99.90
1083;DHT22;530;51.448;7.238;2023-02-28T05:32:38;1.30;99.90
1083;DHT22;530;51.448;7.238;2023-02-28T05:35:08;1.30;99.90
1083;DHT22;530;51.448;7.238;2023-02-28T05:37:34;1.30;99.90
1083;DHT22;530;51.448;7.238;2023-02-28T05:40:00;1.10;99.90
1083;DHT22;530;51.448;7.238;2023-02-28T05:42:26;1.20;99.90
1083;DHT22;530;51.448;7.238;2023-02-28T05:44:52;1.10;99.90
1083;DHT22;530;51.448;7.238;2023-02-28T05:47:17;1.00;99.90
1083;DHT22;530;51.448;7.238;2023-02-28T05:49:43;1.30;99.90
1083;DHT22;530;51.448;7.238;2023-02-28T05:52:09;1.30;99.90
1083;DHT22;530;51.448;7.238;2023-02-28T05:54:34;1.30;99.90
1083;DHT22;530;51.448;7.238;2023-02-28T05:57:00;1.20;99.90
1083;DHT22;530;51.448;7.238;2023-02-28T05:59:26;1.00;99.90
1083;DHT22;530;51.448;7.238;2023-02-28T06:01:51;1.10;99.90
1083;DHT22;530;51.448;7.238;2023-02-28T06:04:20;1.00;99.90
1083;DHT22;530;51.448;7.238;2023-02-28T06:06:47;1.20;99.90
1083;DHT22;530;51.448;7.238;2023-02-28T06:09:13;1.00;99.90
1083;DHT22;530;51.448;7.238;2023-02-28T06:11:39;1.10;99.90
1083;DHT22;530;51.448;7.238;2023-02-28T06:14:05;1.00;99.90
1083;DHT22;530;51.448;7.238;2023-02-28T06:16:32;1.20;99.90
1083;DHT22;530;51.448;7.238;2023-02-28T06:19:00;1.10;99.90
1083;DHT22;530;51.448;7.238;2023-02-28T06:21:27;0.90;99.90
1083;DHT22;530;51.448;7.238;2023-02-28T06:23:54;1.00;99.90
1083;DHT22;530;51.448;7.238;2023-02-28T06:26:20;0.80;99.90
1083;DHT22;530;51.448;7.238;2023-02-28T06:28:46;0.90;99.90
1083;DHT22;530;51.448;7.238;2023-02-28T06:31:15;1.00;99.90
1083;DHT22;530;51.448;7.238;2023-02-28T06:33:43;1.10;99.90
1083;DHT22;530;51.448;7.238;2023-02-28T06:36:10;0.90;99.90
1083;DHT22;530;51.448;7.238;2023-02-28T06:38:37;0.80;99.90
1083;DHT22;530;51.448;7.238;2023-02-28T06:41:03;0.80;99.90
1083;DHT22;530;51.448;7.238;2023-02-28T06:43:31;1.00;99.90
1083;DHT22;530;51.448;7.238;2023-02-28T06:45:59;1.00;99.90
1083;DHT22;530;51.448;7.238;2023-02-28T06:48:28;1.00;99.90
1083;DHT22;530;51.448;7.238;2023-02-28T06:51:05;1.00;99.90
1083;DHT22;530;51.448;7.238;2023-02-28T06:53:31;1.00;99.90
1083;DHT22;530;51.448;7.238;2023-02-28T06:55:57;0.90;99.90
1083;DHT22;530;51.448;7.238;2023-02-28T06:58:23;1.00;99.90
1083;DHT22;530;51.448;7.238;2023-02-28T07:00:51;1.00;99.90
1083;DHT22;530;51.448;7.238;2023-02-28T07:03:17;1.00;99.90
1083;DHT22;530;51.448;7.238;2023-02-28T07:05:44;0.90;99.90
1083;DHT22;530;51.448;7.238;2023-02-28T07:08:10;1.10;99.90
1083;DHT22;530;51.448;7.238;2023-02-28T07:10:40;1.00;99.90
1083;DHT22;530;51.448;7.238;2023-02-28T07:13:07;1.20;99.90
1083;DHT22;530;51.448;7.238;2023-02-28T07:15:33;0.90;99.90
1083;DHT22;530;51.448;7.238;2023-02-28T07:17:58;1.00;99.90
1083;DHT22;530;51.448;7.238;2023-02-28T07:20:24;1.10;99.90
1083;DHT22;530;51.448;7.238;2023-02-28T07:22:50;1.00;99.90
1083;DHT22;530;51.448;7.238;2023-02-28T07:25:26;1.20;99.90
1083;DHT22;530;51.448;7.238;2023-02-28T07:27:53;1.20;99.90
1083;DHT22;530;51.448;7.238;2023-02-28T07:30:19;1.20;99.90
1083;DHT22;530;51.448;7.238;2023-02-28T07:32:45;1.30;99.90
1083;DHT22;530;51.448;7.238;2023-02-28T07:35:11;1.20;99.90
1083;DHT22;530;51.448;7.238;2023-02-28T07:37:37;1.40;99.90
1083;DHT22;530;51.448;7.238;2023-02-28T07:40:07;1.40;99.90
1083;DHT22;530;51.448;7.238;2023-02-28T07:42:37;1.60;99.90
1083;DHT22;530;51.448;7.238;2023-02-28T07:45:04;1.80;99.90
1083;DHT22;530;51.448;7.238;2023-02-28T07:47:30;1.80;99.90
1083;DHT22;530;51.448;7.238;2023-02-28T07:49:56;1.70;99.90
1083;DHT22;530;51.448;7.238;2023-02-28T07:52:22;1.90;99.90
1083;DHT22;530;51.448;7.238;2023-02-28T07:54:49;1.80;99.90
1083;DHT22;530;51.448;7.238;2023-02-28T07:57:15;1.80;99.90
1083;DHT22;530;51.448;7.238;2023-02-28T07:59:41;1.80;99.90
1083;DHT22;530;51.448;7.238;2023-02-28T08:02:09;2.10;99.90
1083;DHT22;530;51.448;7.238;2023-02-28T08:04:36;2.10;99.90
1083;DHT22;530;51.448;7.238;2023-02-28T08:07:01;2.50;99.90
1083;DHT22;530;51.448;7.238;2023-02-28T08:09:27;2.50;99.90
1083;DHT22;530;51.448;7.238;2023-02-28T08:11:52;2.20;99.90
1083;DHT22;530;51.448;7.238;2023-02-28T08:14:18;2.40;99.90
1083;DHT22;530;51.448;7.238;2023-02-28T08:16:44;2.30;99.90
1083;DHT22;530;51.448;7.238;2023-02-28T08:19:09;2.30;99.90
1083;DHT22;530;51.448;7.238;2023-02-28T08:21:35;2.30;99.90
1083;DHT22;530;51.448;7.238;2023-02-28T08:24:01;2.30;99.90
1083;DHT22;530;51.448;7.238;2023-02-28T08:26:27;2.40;99.90
1083;DHT22;530;51.448;7.238;2023-02-28T08:28:52;2.60;99.90
1083;DHT22;530;51.448;7.238;2023-02-28T08:31:18;2.40;99.90
1083;DHT22;530;51.448;7.238;2023-02-28T08:33:44;2.70;99.90
1083;DHT22;530;51.448;7.238;2023-02-28T08:36:11;2.50;99.90
1083;DHT22;530;51.448;7.238;2023-02-28T08:38:37;2.70;99.90
1083;DHT22;530;51.448;7.238;2023-02-28T08:41:07;3.10;99.90
1083;DHT22;530;51.448;7.238;2023-02-28T08:43:34;3.40;99.90
1083;DHT22;530;51.448;7.238;2023-02-28T08:46:00;3.80;99.90
1083;DHT22;530;51.448;7.238;2023-02-28T08:48:30;3.70;99.90
1083;DHT22;530;51.448;7.238;2023-02-28T08:51:01;3.90;99.90
1083;DHT22;530;51.448;7.238;2023-02-28T08:53:27;3.90;99.90
1083;DHT22;530;51.448;7.238;2023-02-28T08:56:04;3.90;99.90
1083;DHT22;530;51.448;7.238;2023-02-28T08:58:31;4.30;99.90
1083;DHT22;530;51.448;7.238;2023-02-28T09:00:57;4.10;99.90
1083;DHT22;530;51.448;7.238;2023-02-28T09:03:23;4.50;99.90
1083;DHT22;530;51.448;7.238;2023-02-28T09:05:56;4.70;99.90
1083;DHT22;530;51.448;7.238;2023-02-28T09:08:24;4.70;99.40
1083;DHT22;530;51.448;7.238;2023-02-28T09:10:50;4.90;99.40
1083;DHT22;530;51.448;7.238;2023-02-28T09:13:16;5.20;98.30
1083;DHT22;530;51.448;7.238;2023-02-28T09:15:42;5.00;97.20
1083;DHT22;530;51.448;7.238;2023-02-28T09:18:08;5.60;97.50
1083;DHT22;530;51.448;7.238;2023-02-28T09:20:33;5.80;97.50
1083;DHT22;530;51.448;7.238;2023-02-28T09:22:59;5.90;97.00
1083;DHT22;530;51.448;7.238;2023-02-28T09:25:25;6.20;96.20
1083;DHT22;530;51.448;7.238;2023-02-28T09:27:50;6.30;96.00
1083;DHT22;530;51.448;7.238;2023-02-28T09:30:16;6.50;95.90
1083;DHT22;530;51.448;7.238;2023-02-28T09:32:42;6.60;95.60
1083;DHT22;530;51.448;7.238;2023-02-28T09:35:08;6.70;95.30
1083;DHT22;530;51.448;7.238;2023-02-28T09:37:38;6.90;95.00
1083;DHT22;530;51.448;7.238;2023-02-28T09:40:05;7.00;94.40
1083;DHT22;530;51.448;7.238;2023-02-28T09:42:33;7.30;93.50
1083;DHT22;530;51.448;7.238;2023-02-28T09:45:02;7.40;93.70
1083;DHT22;530;51.448;7.238;2023-02-28T09:47:36;7.50;92.50
1083;DHT22;530;51.448;7.238;2023-02-28T09:50:29;7.50;91.70
1083;DHT22;530;51.448;7.238;2023-02-28T09:52:59;7.30;91.30
1083;DHT22;530;51.448;7.238;2023-02-28T09:55:42;7.10;90.50
1083;DHT22;530;51.448;7.238;2023-02-28T10:01:12;6.90;91.40
1083;DHT22;530;51.448;7.238;2023-02-28T10:06:53;7.20;90.00
1083;DHT22;530;51.448;7.238;2023-02-28T10:09:25;7.40;91.10
1083;DHT22;530;51.448;7.238;2023-02-28T10:11:56;7.50;91.20
1083;DHT22;530;51.448;7.238;2023-02-28T10:14:26;7.50;89.10
1083;DHT22;530;51.448;7.238;2023-02-28T10:17:05;7.70;90.00
1083;DHT22;530;51.448;7.238;2023-02-28T10:19:59;7.60;88.10
1083;DHT22;530;51.448;7.238;2023-02-28T10:22:36;7.50;85.80
1083;DHT22;530;51.448;7.238;2023-02-28T10:25:26;7.40;86.40
1083;DHT22;530;51.448;7.238;2023-02-28T10:27:54;7.30;86.40
1083;DHT22;530;51.448;7.238;2023-02-28T10:30:24;7.30;85.90
1083;DHT22;530;51.448;7.238;2023-02-28T10:32:52;7.30;87.80
1083;DHT22;530;51.448;7.238;2023-02-28T10:35:25;7.30;83.80
1083;DHT22;530;51.448;7.238;2023-02-28T10:37:58;7.40;85.70
1083;DHT22;530;51.448;7.238;2023-02-28T10:43:03;7.30;80.20
1083;DHT22;530;51.448;7.238;2023-02-28T10:45:34;7.20;80.70
1083;DHT22;530;51.448;7.238;2023-02-28T10:51:22;7.20;79.80
1083;DHT22;530;51.448;7.238;2023-02-28T10:53:50;7.30;82.30
1083;DHT22;530;51.448;7.238;2023-02-28T10:56:18;7.40;82.70
1083;DHT22;530;51.448;7.238;2023-02-28T11:01:46;7.40;81.70
1083;DHT22;530;51.448;7.238;2023-02-28T11:07:17;7.30;78.30
1083;DHT22;530;51.448;7.238;2023-02-28T11:09:49;7.10;77.20
1083;DHT22;530;51.448;7.238;2023-02-28T11:12:36;6.80;76.90
1083;DHT22;530;51.448;7.238;2023-02-28T11:20:48;6.60;80.40
1083;DHT22;530;51.448;7.238;2023-02-28T11:23:16;6.60;81.70
1083;DHT22;530;51.448;7.238;2023-02-28T11:25:50;6.70;81.70
1083;DHT22;530;51.448;7.238;2023-02-28T11:38:46;6.50;81.80
1083;DHT22;530;51.448;7.238;2023-02-28T11:47:23;6.50;80.40
1083;DHT22;530;51.448;7.238;2023-02-28T11:52:56;6.80;80.40
1083;DHT22;530;51.448;7.238;2023-02-28T12:04:37;7.00;82.60
1083;DHT22;530;51.448;7.238;2023-02-28T12:09:46;7.20;80.90
1083;DHT22;530;51.448;7.238;2023-02-28T12:12:40;7.10;77.40
1083;DHT22;530;51.448;7.238;2023-02-28T12:15:41;7.20;78.30
1083;DHT22;530;51.448;7.238;2023-02-28T12:21:06;7.50;78.40
1083;DHT22;530;51.448;7.238;2023-02-28T12:26:39;7.40;77.10
1083;DHT22;530;51.448;7.238;2023-02-28T12:29:30;7.40;78.80
1083;DHT22;530;51.448;7.238;2023-02-28T12:32:09;7.60;78.20
1083;DHT22;530;51.448;7.238;2023-02-28T12:34:48;7.70;78.20
1083;DHT22;530;51.448;7.238;2023-02-28T12:37:29;7.60;76.90
1083;DHT22;530;51.448;7.238;2023-02-28T12:40:21;7.60;76.90
1083;DHT22;530;51.448;7.238;2023-02-28T12:43:02;7.60;76.30
1083;DHT22;530;51.448;7.238;2023-02-28T12:45:51;7.50;76.00
1083;DHT22;530;51.448;7.238;2023-02-28T12:48:25;7.50;79.50
1083;DHT22;530;51.448;7.238;2023-02-28T12:50:53;7.50;80.70
1083;DHT22;530;51.448;7.238;2023-02-28T12:58:54;7.70;78.80
1083;DHT22;530;51.448;7.238;2023-02-28T13:01:35;7.70;77.50
1083;DHT22;530;51.448;7.238;2023-02-28T13:09:40;7.80;78.10
1083;DHT22;530;51.448;7.238;2023-02-28T13:12:14;7.70;78.40
1083;DHT22;530;51.448;7.238;2023-02-28T13:14:40;7.80;79.90
1083;DHT22;530;51.448;7.238;2023-02-28T13:19:38;7.90;79.40
1083;DHT22;530;51.448;7.238;2023-02-28T13:22:05;7.80;80.20
1083;DHT22;530;51.448;7.238;2023-02-28T13:24:50;7.90;80.80
1083;DHT22;530;51.448;7.238;2023-02-28T13:27:37;7.90;78.60
1083;DHT22;530;51.448;7.238;2023-02-28T13:31:10;7.90;79.10
1083;DHT22;530;51.448;7.238;2023-02-28T13:33:24;7.90;78.90
1083;DHT22;530;51.448;7.238;2023-02-28T13:46:27;7.80;79.00
1083;DHT22;530;51.448;7.238;2023-02-28T13:48:53;7.70;78.40
1083;DHT22;530;51.448;7.238;2023-02-28T13:54:28;7.50;79.70
1083;DHT22;530;51.448;7.238;2023-02-28T14:00:23;7.50;81.30
1083;DHT22;530;51.448;7.238;2023-02-28T14:05:32;7.70;84.70
1083;DHT22;530;51.448;7.238;2023-02-28T14:08:16;7.60;82.50
1083;DHT22;530;51.448;7.238;2023-02-28T14:10:48;7.60;82.60
1083;DHT22;530;51.448;7.238;2023-02-28T14:15:56;7.40;81.00
1083;DHT22;530;51.448;7.238;2023-02-28T14:18:37;7.40;82.70
1083;DHT22;530;51.448;7.238;2023-02-28T14:21:27;7.30;85.00
1083;DHT22;530;51.448;7.238;2023-02-28T14:26:57;7.30;86.60
1083;DHT22;530;51.448;7.238;2023-02-28T14:37:34;7.60;86.80
1083;DHT22;530;51.448;7.238;2023-02-28T14:40:04;7.60;86.80
1083;DHT22;530;51.448;7.238;2023-02-28T14:42:34;7.50;87.10
1083;DHT22;530;51.448;7.238;2023-02-28T14:45:01;7.10;87.20
1083;DHT22;530;51.448;7.238;2023-02-28T14:47:31;7.30;88.20
1083;DHT22;530;51.448;7.238;2023-02-28T14:49:59;7.20;88.80
1083;DHT22;530;51.448;7.238;2023-02-28T14:52:31;6.70;88.00
1083;DHT22;530;51.448;7.238;2023-02-28T14:55:00;7.00;88.80
1083;DHT22;530;51.448;7.238;2023-02-28T14:57:28;7.10;88.70
1083;DHT22;530;51.448;7.238;2023-02-28T15:00:14;7.10;88.50
1083;DHT22;530;51.448;7.238;2023-02-28T15:02:40;7.10;89.30
1083;DHT22;530;51.448;7.238;2023-02-28T15:07:36;7.10;87.50
1083;DHT22;530;51.448;7.238;2023-02-28T15:12:35;7.10;88.10
1083;DHT22;530;51.448;7.238;2023-02-28T15:15:01;7.10;88.30
1083;DHT22;530;51.448;7.238;2023-02-28T15:17:27;7.10;87.90
1083;DHT22;530;51.448;7.238;2023-02-28T15:19:53;7.10;88.00
1083;DHT22;530;51.448;7.238;2023-02-28T15:22:28;7.10;87.20
1083;DHT22;530;51.448;7.238;2023-02-28T15:24:54;7.00;87.50
1083;DHT22;530;51.448;7.238;2023-02-28T15:27:29;7.00;87.90
1083;DHT22;530;51.448;7.238;2023-02-28T15:30:00;6.90;87.90
1083;DHT22;530;51.448;7.238;2023-02-28T15:32:38;6.90;87.90
1083;DHT22;530;51.448;7.238;2023-02-28T15:35:30;7.00;88.10
1083;DHT22;530;51.448;7.238;2023-02-28T15:38:13;6.80;86.30
1083;DHT22;530;51.448;7.238;2023-02-28T15:40:53;6.70;87.80
1083;DHT22;530;51.448;7.238;2023-02-28T15:43:39;6.70;88.20
1083;DHT22;530;51.448;7.238;2023-02-28T15:46:11;6.70;88.40
1083;DHT22;530;51.448;7.238;2023-02-28T15:48:51;6.70;87.90
1083;DHT22;530;51.448;7.238;2023-02-28T15:51:33;6.60;88.10
1083;DHT22;530;51.448;7.238;2023-02-28T15:54:06;6.40;87.80
1083;DHT22;530;51.448;7.238;2023-02-28T15:56:38;6.20;88.00
1083;DHT22;530;51.448;7.238;2023-02-28T15:59:06;6.60;89.00
1083;DHT22;530;51.448;7.238;2023-02-28T16:01:35;6.60;89.60
1083;DHT22;530;51.448;7.238;2023-02-28T16:04:25;6.80;90.00
1083;DHT22;530;51.448;7.238;2023-02-28T16:09:26;6.60;89.90
1083;DHT22;530;51.448;7.238;2023-02-28T16:11:55;6.40;89.70
1083;DHT22;530;51.448;7.238;2023-02-28T16:14:23;6.40;90.00
1083;DHT22;530;51.448;7.238;2023-02-28T16:16:55;6.30;90.40
1083;DHT22;530;51.448;7.238;2023-02-28T16:19:21;6.40;91.00
1083;DHT22;530;51.448;7.238;2023-02-28T16:21:48;6.30;91.30
1083;DHT22;530;51.448;7.238;2023-02-28T16:24:13;6.30;91.30
1083;DHT22;530;51.448;7.238;2023-02-28T16:26:46;6.20;91.20
1083;DHT22;530;51.448;7.238;2023-02-28T16:29:32;6.20;91.40
1083;DHT22;530;51.448;7.238;2023-02-28T16:32:00;6.20;91.50
1083;DHT22;530;51.448;7.238;2023-02-28T16:34:26;6.10;91.50
1083;DHT22;530;51.448;7.238;2023-02-28T16:36:52;6.10;91.70
1083;DHT22;530;51.448;7.238;2023-02-28T16:39:18;6.10;91.60
1083;DHT22;530;51.448;7.238;2023-02-28T16:41:47;6.00;91.80
1083;DHT22;530;51.448;7.238;2023-02-28T16:46:46;6.00;92.00
1083;DHT22;530;51.448;7.238;2023-02-28T16:49:12;6.10;92.40
1083;DHT22;530;51.448;7.238;2023-02-28T16:51:38;6.00;92.20
1083;DHT22;530;51.448;7.238;2023-02-28T16:54:04;6.00;92.30
1083;DHT22;530;51.448;7.238;2023-02-28T16:56:30;5.80;92.10
1083;DHT22;530;51.448;7.238;2023-02-28T16:59:00;5.80;92.60
1083;DHT22;530;51.448;7.238;2023-02-28T17:01:26;5.80;92.10
1083;DHT22;530;51.448;7.238;2023-02-28T17:03:53;5.80;92.30
1083;DHT22;530;51.448;7.238;2023-02-28T17:06:28;5.80;92.30
1083;DHT22;530;51.448;7.238;2023-02-28T17:08:56;5.40;92.30
1083;DHT22;530;51.448;7.238;2023-02-28T17:11:22;5.70;92.50
1083;DHT22;530;51.448;7.238;2023-02-28T17:13:48;5.80;92.80
1083;DHT22;530;51.448;7.238;2023-02-28T17:18:50;5.50;92.70
1083;DHT22;530;51.448;7.238;2023-02-28T17:21:17;5.60;93.00
1083;DHT22;530;51.448;7.238;2023-02-28T17:23:43;5.50;93.00
1083;DHT22;530;51.448;7.238;2023-02-28T17:26:13;5.50;93.10
1083;DHT22;530;51.448;7.238;2023-02-28T17:28:38;5.60;93.50
1083;DHT22;530;51.448;7.238;2023-02-28T17:31:04;5.80;93.40
1083;DHT22;530;51.448;7.238;2023-02-28T17:33:30;5.40;93.30
1083;DHT22;530;51.448;7.238;2023-02-28T17:35:55;5.40;93.50
1083;DHT22;530;51.448;7.238;2023-02-28T17:38:22;5.70;93.60
1083;DHT22;530;51.448;7.238;2023-02-28T17:40:48;5.60;93.60
1083;DHT22;530;51.448;7.238;2023-02-28T17:43:14;5.40;93.80
1083;DHT22;530;51.448;7.238;2023-02-28T17:45:40;5.40;93.90
1083;DHT22;530;51.448;7.238;2023-02-28T17:48:09;5.60;94.10
1083;DHT22;530;51.448;7.238;2023-02-28T17:50:35;5.50;94.20
1083;DHT22;530;51.448;7.238;2023-02-28T17:53:00;5.40;94.20
1083;DHT22;530;51.448;7.238;2023-02-28T17:55:26;5.20;94.20
1083;DHT22;530;51.448;7.238;2023-02-28T17:57:52;5.40;94.50
1083;DHT22;530;51.448;7.238;2023-02-28T18:00:18;5.40;94.50
1083;DHT22;530;51.448;7.238;2023-02-28T18:02:44;5.40;94.80
1083;DHT22;530;51.448;7.238;2023-02-28T18:05:10;5.40;94.90
1083;DHT22;530;51.448;7.238;2023-02-28T18:07:37;5.10;94.80
1083;DHT22;530;51.448;7.238;2023-02-28T18:10:05;5.30;95.00
1083;DHT22;530;51.448;7.238;2023-02-28T18:12:31;5.20;95.10
1083;DHT22;530;51.448;7.238;2023-02-28T18:14:56;5.40;95.40
1083;DHT22;530;51.448;7.238;2023-02-28T18:17:22;5.10;95.60
1083;DHT22;530;51.448;7.238;2023-02-28T18:19:48;5.20;95.80
1083;DHT22;530;51.448;7.238;2023-02-28T18:22:13;5.10;95.90
1083;DHT22;530;51.448;7.238;2023-02-28T18:24:39;4.90;95.90
1083;DHT22;530;51.448;7.238;2023-02-28T18:27:05;5.10;95.90
1083;DHT22;530;51.448;7.238;2023-02-28T18:29:31;4.90;96.00
1083;DHT22;530;51.448;7.238;2023-02-28T18:31:57;5.00;95.90
1083;DHT22;530;51.448;7.238;2023-02-28T18:34:24;5.30;96.20
1083;DHT22;530;51.448;7.238;2023-02-28T18:36:51;5.20;96.10
1083;DHT22;530;51.448;7.238;2023-02-28T18:39:17;5.00;96.10
1083;DHT22;530;51.448;7.238;2023-02-28T18:41:43;5.00;96.40
1083;DHT22;530;51.448;7.238;2023-02-28T18:44:09;4.90;96.50
1083;DHT22;530;51.448;7.238;2023-02-28T18:46:35;4.80;96.60
1083;DHT22;530;51.448;7.238;2023-02-28T18:49:01;5.00;96.70
1083;DHT22;530;51.448;7.238;2023-02-28T18:51:28;4.90;96.70
1083;DHT22;530;51.448;7.238;2023-02-28T18:53:54;4.80;96.70
1083;DHT22;530;51.448;7.238;2023-02-28T18:56:22;4.80;96.50
1083;DHT22;530;51.448;7.238;2023-02-28T18:58:49;5.00;96.70
1083;DHT22;530;51.448;7.238;2023-02-28T19:01:18;4.90;96.80
1083;DHT22;530;51.448;7.238;2023-02-28T19:03:44;4.90;96.80
1083;DHT22;530;51.448;7.238;2023-02-28T19:06:11;4.90;96.80
1083;DHT22;530;51.448;7.238;2023-02-28T19:08:37;4.80;96.70
1083;DHT22;530;51.448;7.238;2023-02-28T19:11:21;4.60;96.70
1083;DHT22;530;51.448;7.238;2023-02-28T19:13:47;4.80;96.90
1083;DHT22;530;51.448;7.238;2023-02-28T19:16:15;4.70;97.00
1083;DHT22;530;51.448;7.238;2023-02-28T19:18:42;4.70;97.00
1083;DHT22;530;51.448;7.238;2023-02-28T19:21:10;4.70;97.50
1083;DHT22;530;51.448;7.238;2023-02-28T19:23:37;4.70;97.40